sensor_id;sensor_type;location;lat;lon;timestamp;pressure;altitude;pressure_sealevel;temperature;humidity
6435;BME280;3250;42.694;23.278;2023-05-03T00:02:05;95133.97;;;13.45;47.12
6435;BME280;3250;42.694;23.278;2023-05-03T00:04:31;95132.56;;;13.42;47.14
6435;BME280;3250;42.694;23.278;2023-05-03T00:06:57;95109.56;;;13.25;46.94
6435;BME280;3250;42.694;23.278;2023-05-03T00:09:22;95134.38;;;13.42;47.16
6435;BME280;3250;42.694;23.278;2023-05-03T00:11:48;95130.00;;;13.36;47.23
6435;BME280;3250;42.694;23.278;2023-05-03T00:14:14;95132.00;;;13.40;46.59
6435;BME280;3250;42.694;23.278;2023-05-03T00:16:39;95143.00;;;13.55;46.13
6435;BME280;3250;42.694;23.278;2023-05-03T00:19:05;95134.84;;;13.57;46.02
6435;BME280;3250;42.694;23.278;2023-05-03T00:21:30;95132.34;;;13.44;46.03
6435;BME280;3250;42.694;23.278;2023-05-03T00:23:55;95142.19;;;13.37;45.90
6435;BME280;3250;42.694;23.278;2023-05-03T00:26:21;95178.69;;;13.28;46.08
6435;BME280;3250;42.694;23.278;2023-05-03T00:28:46;95138.00;;;13.29;45.93
6435;BME280;3250;42.694;23.278;2023-05-03T00:31:12;95150.72;;;13.20;46.34
6435;BME280;3250;42.694;23.278;2023-05-03T00:33:38;95136.94;;;13.12;46.65
6435;BME280;3250;42.694;23.278;2023-05-03T00:36:13;95136.56;;;13.08;46.83
6435;BME280;3250;42.694;23.278;2023-05-03T00:38:40;95150.88;;;13.01;47.11
6435;BME280;3250;42.694;23.278;2023-05-03T00:41:06;95150.38;;;13.10;46.96
6435;BME280;3250;42.694;23.278;2023-05-03T00:43:32;95165.28;;;13.05;46.77
6435;BME280;3250;42.694;23.278;2023-05-03T00:45:59;95153.06;;;12.85;47.50
6435;BME280;3250;42.694;23.278;2023-05-03T00:48:25;95153.38;;;12.96;47.47
6435;BME280;3250;42.694;23.278;2023-05-03T00:50:51;95157.63;;;12.97;47.11
6435;BME280;3250;42.694;23.278;2023-05-03T00:53:20;95121.47;;;12.72;46.88
6435;BME280;3250;42.694;23.278;2023-05-03T00:55:45;95153.88;;;12.86;46.99
6435;BME280;3250;42.694;23.278;2023-05-03T00:58:11;95147.78;;;12.85;47.06
6435;BME280;3250;42.694;23.278;2023-05-03T01:00:36;95144.53;;;12.83;47.10
6435;BME280;3250;42.694;23.278;2023-05-03T01:03:01;95151.81;;;12.88;46.56
6435;BME280;3250;42.694;23.278;2023-05-03T01:05:31;95142.38;;;12.74;46.62
6435;BME280;3250;42.694;23.278;2023-05-03T01:08:10;95140.69;;;12.61;46.96
6435;BME280;3250;42.694;23.278;2023-05-03T01:13:27;95120.03;;;12.52;47.13
6435;BME280;3250;42.694;23.278;2023-05-03T01:16:03;95128.91;;;12.32;47.36
6435;BME280;3250;42.694;23.278;2023-05-03T01:18:35;95129.94;;;12.31;47.69
6435;BME280;3250;42.694;23.278;2023-05-03T01:21:02;95116.56;;;12.26;47.96
6435;BME280;3250;42.694;23.278;2023-05-03T01:26:33;95121.41;;;12.29;47.97
6435;BME280;3250;42.694;23.278;2023-05-03T01:28:59;95108.22;;;12.29;48.16
6435;BME280;3250;42.694;23.278;2023-05-03T01:34:08;95117.50;;;12.07;48.28
6435;BME280;3250;42.694;23.278;2023-05-03T01:36:35;95106.91;;;12.14;48.64
6435;BME280;3250;42.694;23.278;2023-05-03T01:39:11;95118.00;;;12.22;48.64
6435;BME280;3250;42.694;23.278;2023-05-03T01:41:40;95103.91;;;12.35;48.07
6435;BME280;3250;42.694;23.278;2023-05-03T01:44:08;95108.44;;;12.28;48.37
6435;BME280;3250;42.694;23.278;2023-05-03T01:46:41;95112.66;;;12.35;48.02
6435;BME280;3250;42.694;23.278;2023-05-03T01:49:07;95101.91;;;12.30;48.06
6435;BME280;3250;42.694;23.278;2023-05-03T01:51:32;95095.28;;;12.21;48.25
6435;BME280;3250;42.694;23.278;2023-05-03T01:53:58;95099.13;;;12.25;48.46
6435;BME280;3250;42.694;23.278;2023-05-03T01:56:23;95102.78;;;12.24;48.75
6435;BME280;3250;42.694;23.278;2023-05-03T01:58:48;95093.03;;;12.25;48.61
6435;BME280;3250;42.694;23.278;2023-05-03T02:01:14;95063.88;;;12.13;48.68
6435;BME280;3250;42.694;23.278;2023-05-03T02:03:39;95085.72;;;12.27;48.59
6435;BME280;3250;42.694;23.278;2023-05-03T02:06:05;95080.69;;;12.43;48.20
6435;BME280;3250;42.694;23.278;2023-05-03T02:08:30;95080.91;;;12.42;48.30
6435;BME280;3250;42.694;23.278;2023-05-03T02:10:56;95090.19;;;12.26;48.37
6435;BME280;3250;42.694;23.278;2023-05-03T02:13:21;95060.06;;;12.34;48.64
6435;BME280;3250;42.694;23.278;2023-05-03T02:15:46;95083.38;;;12.37;48.47
6435;BME280;3250;42.694;23.278;2023-05-03T02:18:12;95055.41;;;12.29;48.83
6435;BME280;3250;42.694;23.278;2023-05-03T02:20:38;95056.06;;;12.25;48.83
6435;BME280;3250;42.694;23.278;2023-05-03T02:23:03;95061.84;;;12.15;48.90
6435;BME280;3250;42.694;23.278;2023-05-03T02:25:29;95042.28;;;11.98;49.11
6435;BME280;3250;42.694;23.278;2023-05-03T02:27:54;95040.94;;;11.89;49.40
6435;BME280;3250;42.694;23.278;2023-05-03T02:30:20;95071.97;;;11.93;50.02
6435;BME280;3250;42.694;23.278;2023-05-03T02:32:45;95058.38;;;11.90;49.67
6435;BME280;3250;42.694;23.278;2023-05-03T02:35:11;95065.63;;;11.94;49.84
6435;BME280;3250;42.694;23.278;2023-05-03T02:37:36;95070.03;;;12.07;49.46
6435;BME280;3250;42.694;23.278;2023-05-03T02:40:02;95076.72;;;12.03;49.54
6435;BME280;3250;42.694;23.278;2023-05-03T02:42:29;95076.91;;;12.08;49.56
6435;BME280;3250;42.694;23.278;2023-05-03T02:44:55;95084.06;;;12.01;49.72
6435;BME280;3250;42.694;23.278;2023-05-03T02:47:20;95094.19;;;12.04;49.77
6435;BME280;3250;42.694;23.278;2023-05-03T02:49:46;95089.13;;;12.02;49.72
6435;BME280;3250;42.694;23.278;2023-05-03T02:52:12;95085.72;;;11.95;49.83
6435;BME280;3250;42.694;23.278;2023-05-03T02:54:37;95091.13;;;12.07;49.71
6435;BME280;3250;42.694;23.278;2023-05-03T02:57:03;95079.66;;;12.20;49.30
6435;BME280;3250;42.694;23.278;2023-05-03T02:59:28;95094.94;;;12.11;49.49
6435;BME280;3250;42.694;23.278;2023-05-03T03:01:54;95085.00;;;12.13;49.55
6435;BME280;3250;42.694;23.278;2023-05-03T03:04:19;95081.75;;;12.11;49.81
6435;BME280;3250;42.694;23.278;2023-05-03T03:06:44;95101.63;;;12.14;49.75
6435;BME280;3250;42.694;23.278;2023-05-03T03:09:10;95096.00;;;12.10;49.83
6435;BME280;3250;42.694;23.278;2023-05-03T03:11:36;95088.50;;;12.07;49.82
6435;BME280;3250;42.694;23.278;2023-05-03T03:14:02;95091.19;;;12.00;50.33
6435;BME280;3250;42.694;23.278;2023-05-03T03:16:27;95096.00;;;12.10;49.60
6435;BME280;3250;42.694;23.278;2023-05-03T03:18:53;95083.28;;;11.94;50.02
6435;BME280;3250;42.694;23.278;2023-05-03T03:21:18;95091.56;;;12.04;50.33
6435;BME280;3250;42.694;23.278;2023-05-03T03:23:43;95105.75;;;12.09;50.13
6435;BME280;3250;42.694;23.278;2023-05-03T03:26:09;95104.66;;;12.17;49.81
6435;BME280;3250;42.694;23.278;2023-05-03T03:28:34;95099.19;;;12.12;50.07
6435;BME280;3250;42.694;23.278;2023-05-03T03:31:00;95111.44;;;12.06;49.85
6435;BME280;3250;42.694;23.278;2023-05-03T03:33:25;95087.88;;;11.73;50.46
6435;BME280;3250;42.694;23.278;2023-05-03T03:35:50;95115.84;;;11.81;50.87
6435;BME280;3250;42.694;23.278;2023-05-03T03:38:16;95142.22;;;11.81;50.82
6435;BME280;3250;42.694;23.278;2023-05-03T03:40:41;95126.25;;;11.76;51.21
6435;BME280;3250;42.694;23.278;2023-05-03T03:43:06;95124.63;;;11.75;51.11
6435;BME280;3250;42.694;23.278;2023-05-03T03:45:32;95122.78;;;11.76;50.90
6435;BME280;3250;42.694;23.278;2023-05-03T03:47:57;95124.31;;;11.90;50.77
6435;BME280;3250;42.694;23.278;2023-05-03T03:50:24;95115.66;;;11.83;50.72
6435;BME280;3250;42.694;23.278;2023-05-03T03:52:49;95135.28;;;11.87;50.60
6435;BME280;3250;42.694;23.278;2023-05-03T03:55:15;95118.50;;;11.81;50.79
6435;BME280;3250;42.694;23.278;2023-05-03T03:57:40;95126.81;;;11.78;50.91
6435;BME280;3250;42.694;23.278;2023-05-03T04:00:06;95126.41;;;11.81;50.97
6435;BME280;3250;42.694;23.278;2023-05-03T04:02:35;95134.09;;;11.83;50.83
6435;BME280;3250;42.694;23.278;2023-05-03T04:05:01;95138.38;;;11.84;50.68
6435;BME280;3250;42.694;23.278;2023-05-03T04:07:26;95137.31;;;11.91;50.63
6435;BME280;3250;42.694;23.278;2023-05-03T04:09:52;95148.38;;;12.06;50.01
6435;BME280;3250;42.694;23.278;2023-05-03T04:12:17;95133.81;;;11.97;49.82
6435;BME280;3250;42.694;23.278;2023-05-03T04:14:43;95145.06;;;11.80;50.70
6435;BME280;3250;42.694;23.278;2023-05-03T04:17:08;95147.53;;;11.75;50.79
6435;BME280;3250;42.694;23.278;2023-05-03T04:19:33;95134.94;;;11.70;51.03
6435;BME280;3250;42.694;23.278;2023-05-03T04:21:59;95148.34;;;11.75;50.91
6435;BME280;3250;42.694;23.278;2023-05-03T04:24:25;95169.09;;;11.52;51.47
6435;BME280;3250;42.694;23.278;2023-05-03T04:26:51;95172.38;;;11.47;51.82
6435;BME280;3250;42.694;23.278;2023-05-03T04:29:17;95169.53;;;11.42;51.94
6435;BME280;3250;42.694;23.278;2023-05-03T04:31:44;95209.06;;;11.42;52.20
6435;BME280;3250;42.694;23.278;2023-05-03T04:34:10;95178.25;;;11.49;52.45
6435;BME280;3250;42.694;23.278;2023-05-03T04:36:39;95186.13;;;11.56;51.87
6435;BME280;3250;42.694;23.278;2023-05-03T04:39:06;95187.56;;;11.45;52.47
6435;BME280;3250;42.694;23.278;2023-05-03T04:41:31;95188.34;;;11.52;52.39
6435;BME280;3250;42.694;23.278;2023-05-03T04:43:57;95205.41;;;11.56;52.20
6435;BME280;3250;42.694;23.278;2023-05-03T04:46:23;95203.94;;;11.67;52.08
6435;BME280;3250;42.694;23.278;2023-05-03T04:48:48;95195.59;;;11.70;51.78
6435;BME280;3250;42.694;23.278;2023-05-03T04:51:13;95210.44;;;11.64;52.53
6435;BME280;3250;42.694;23.278;2023-05-03T04:53:39;95207.41;;;11.67;52.53
6435;BME280;3250;42.694;23.278;2023-05-03T04:56:04;95202.94;;;11.75;51.81
6435;BME280;3250;42.694;23.278;2023-05-03T04:58:31;95217.72;;;11.82;51.91
6435;BME280;3250;42.694;23.278;2023-05-03T05:00:57;95222.78;;;11.84;51.80
6435;BME280;3250;42.694;23.278;2023-05-03T05:03:22;95221.56;;;11.73;52.42
6435;BME280;3250;42.694;23.278;2023-05-03T05:05:48;95212.50;;;11.56;52.94
6435;BME280;3250;42.694;23.278;2023-05-03T05:08:13;95225.28;;;11.52;53.24
6435;BME280;3250;42.694;23.278;2023-05-03T05:10:41;95230.13;;;11.62;53.60
6435;BME280;3250;42.694;23.278;2023-05-03T05:13:07;95239.00;;;11.81;53.58
6435;BME280;3250;42.694;23.278;2023-05-03T05:15:32;95238.63;;;11.64;54.82
6435;BME280;3250;42.694;23.278;2023-05-03T05:17:58;95234.41;;;11.56;56.36
6435;BME280;3250;42.694;23.278;2023-05-03T05:20:24;95238.69;;;11.38;57.58
6435;BME280;3250;42.694;23.278;2023-05-03T05:22:49;95233.22;;;11.39;58.01
6435;BME280;3250;42.694;23.278;2023-05-03T05:25:15;95234.03;;;11.40;57.89
6435;BME280;3250;42.694;23.278;2023-05-03T05:27:40;95239.13;;;11.28;57.72
6435;BME280;3250;42.694;23.278;2023-05-03T05:30:06;95235.88;;;11.26;59.14
6435;BME280;3250;42.694;23.278;2023-05-03T05:32:32;95227.00;;;11.14;57.33
6435;BME280;3250;42.694;23.278;2023-05-03T05:34:57;95241.38;;;11.11;58.26
6435;BME280;3250;42.694;23.278;2023-05-03T05:37:24;95246.03;;;11.03;59.15
6435;BME280;3250;42.694;23.278;2023-05-03T05:39:49;95218.28;;;10.93;58.63
6435;BME280;3250;42.694;23.278;2023-05-03T05:42:15;95256.56;;;11.16;58.43
6435;BME280;3250;42.694;23.278;2023-05-03T05:44:40;95241.78;;;11.15;58.38
6435;BME280;3250;42.694;23.278;2023-05-03T05:47:08;95239.34;;;11.13;58.07
6435;BME280;3250;42.694;23.278;2023-05-03T05:49:33;95258.56;;;11.27;57.63
6435;BME280;3250;42.694;23.278;2023-05-03T05:51:59;95258.19;;;11.30;57.63
6435;BME280;3250;42.694;23.278;2023-05-03T05:54:25;95223.31;;;11.21;57.50
6435;BME280;3250;42.694;23.278;2023-05-03T05:56:50;95230.44;;;11.14;57.63
6435;BME280;3250;42.694;23.278;2023-05-03T05:59:16;95246.44;;;11.32;57.35
6435;BME280;3250;42.694;23.278;2023-05-03T06:01:42;95264.25;;;11.37;57.01
6435;BME280;3250;42.694;23.278;2023-05-03T06:04:11;95245.63;;;11.32;57.97
6435;BME280;3250;42.694;23.278;2023-05-03T06:06:39;95240.75;;;11.22;57.64
6435;BME280;3250;42.694;23.278;2023-05-03T06:09:05;95254.28;;;11.46;57.34
6435;BME280;3250;42.694;23.278;2023-05-03T06:11:31;95243.34;;;11.35;58.04
6435;BME280;3250;42.694;23.278;2023-05-03T06:13:58;95252.06;;;11.36;58.02
6435;BME280;3250;42.694;23.278;2023-05-03T06:16:23;95248.22;;;11.45;57.66
6435;BME280;3250;42.694;23.278;2023-05-03T06:18:49;95246.56;;;11.51;58.21
6435;BME280;3250;42.694;23.278;2023-05-03T06:21:15;95244.75;;;11.51;57.34
6435;BME280;3250;42.694;23.278;2023-05-03T06:23:40;95217.25;;;11.21;58.84
6435;BME280;3250;42.694;23.278;2023-05-03T06:26:06;95246.19;;;11.34;58.63
6435;BME280;3250;42.694;23.278;2023-05-03T06:28:32;95240.13;;;11.40;59.11
6435;BME280;3250;42.694;23.278;2023-05-03T06:30:57;95245.16;;;11.42;59.79
6435;BME280;3250;42.694;23.278;2023-05-03T06:33:23;95235.22;;;11.57;59.31
6435;BME280;3250;42.694;23.278;2023-05-03T06:35:48;95230.50;;;11.79;58.70
6435;BME280;3250;42.694;23.278;2023-05-03T06:38:14;95224.41;;;11.85;58.55
6435;BME280;3250;42.694;23.278;2023-05-03T06:40:39;95204.19;;;11.52;58.10
6435;BME280;3250;42.694;23.278;2023-05-03T06:43:07;95218.97;;;11.66;58.41
6435;BME280;3250;42.694;23.278;2023-05-03T06:45:33;95224.81;;;11.68;57.29
6435;BME280;3250;42.694;23.278;2023-05-03T06:47:58;95217.91;;;11.74;57.80
6435;BME280;3250;42.694;23.278;2023-05-03T06:50:23;95204.94;;;11.72;58.44
6435;BME280;3250;42.694;23.278;2023-05-03T06:52:50;95209.00;;;11.68;58.58
6435;BME280;3250;42.694;23.278;2023-05-03T06:55:16;95202.91;;;11.81;58.17
6435;BME280;3250;42.694;23.278;2023-05-03T06:57:41;95208.53;;;11.91;57.49
6435;BME280;3250;42.694;23.278;2023-05-03T07:00:08;95198.97;;;11.97;59.19
6435;BME280;3250;42.694;23.278;2023-05-03T07:02:34;95182.56;;;11.88;57.03
6435;BME280;3250;42.694;23.278;2023-05-03T07:04:59;95204.72;;;11.81;58.02
6435;BME280;3250;42.694;23.278;2023-05-03T07:07:25;95196.56;;;11.89;57.55
6435;BME280;3250;42.694;23.278;2023-05-03T07:09:50;95207.66;;;12.04;57.18
6435;BME280;3250;42.694;23.278;2023-05-03T07:12:16;95186.25;;;11.74;57.47
6435;BME280;3250;42.694;23.278;2023-05-03T07:14:41;95172.31;;;11.67;58.85
6435;BME280;3250;42.694;23.278;2023-05-03T07:17:08;95194.13;;;11.87;57.86
6435;BME280;3250;42.694;23.278;2023-05-03T07:19:33;95181.13;;;11.92;57.72
6435;BME280;3250;42.694;23.278;2023-05-03T07:22:02;95178.81;;;12.02;57.62
6435;BME280;3250;42.694;23.278;2023-05-03T07:24:28;95192.41;;;12.06;57.79
6435;BME280;3250;42.694;23.278;2023-05-03T07:26:53;95190.19;;;12.03;58.11
6435;BME280;3250;42.694;23.278;2023-05-03T07:29:19;95199.41;;;12.25;57.89
6435;BME280;3250;42.694;23.278;2023-05-03T07:31:44;95211.75;;;12.31;57.62
6435;BME280;3250;42.694;23.278;2023-05-03T07:34:10;95224.44;;;12.47;58.11
6435;BME280;3250;42.694;23.278;2023-05-03T07:36:36;95214.34;;;12.44;57.08
6435;BME280;3250;42.694;23.278;2023-05-03T07:39:02;95221.09;;;12.65;56.73
6435;BME280;3250;42.694;23.278;2023-05-03T07:41:29;95213.34;;;12.70;56.87
6435;BME280;3250;42.694;23.278;2023-05-03T07:43:54;95208.94;;;12.58;57.25
6435;BME280;3250;42.694;23.278;2023-05-03T07:46:20;95180.38;;;12.48;57.63
6435;BME280;3250;42.694;23.278;2023-05-03T07:48:45;95209.41;;;12.48;57.68
6435;BME280;3250;42.694;23.278;2023-05-03T07:51:11;95225.91;;;12.43;58.31
6435;BME280;3250;42.694;23.278;2023-05-03T07:53:36;95215.91;;;12.52;58.67
6435;BME280;3250;42.694;23.278;2023-05-03T07:56:05;95216.13;;;12.75;58.56
6435;BME280;3250;42.694;23.278;2023-05-03T07:58:31;95214.72;;;12.73;58.77
6435;BME280;3250;42.694;23.278;2023-05-03T08:00:56;95212.28;;;12.71;57.87
6435;BME280;3250;42.694;23.278;2023-05-03T08:03:22;95199.31;;;12.70;58.30
6435;BME280;3250;42.694;23.278;2023-05-03T08:05:48;95200.00;;;12.83;57.71
6435;BME280;3250;42.694;23.278;2023-05-03T08:08:14;95217.53;;;13.03;58.06
6435;BME280;3250;42.694;23.278;2023-05-03T08:10:39;95206.66;;;13.17;57.58
6435;BME280;3250;42.694;23.278;2023-05-03T08:13:08;95223.84;;;13.27;56.90
6435;BME280;3250;42.694;23.278;2023-05-03T08:15:33;95209.94;;;13.13;57.83
6435;BME280;3250;42.694;23.278;2023-05-03T08:17:59;95214.91;;;13.28;58.66
6435;BME280;3250;42.694;23.278;2023-05-03T08:20:24;95224.53;;;13.58;57.31
6435;BME280;3250;42.694;23.278;2023-05-03T08:22:53;95219.63;;;13.62;57.30
6435;BME280;3250;42.694;23.278;2023-05-03T08:25:21;95232.25;;;13.60;57.53
6435;BME280;3250;42.694;23.278;2023-05-03T08:27:48;95224.63;;;13.70;56.62
6435;BME280;3250;42.694;23.278;2023-05-03T08:30:13;95211.88;;;13.97;58.40
6435;BME280;3250;42.694;23.278;2023-05-03T08:32:39;95227.28;;;14.18;56.68
6435;BME280;3250;42.694;23.278;2023-05-03T08:35:04;95223.38;;;14.39;55.04
6435;BME280;3250;42.694;23.278;2023-05-03T08:37:37;95220.38;;;14.77;56.40
6435;BME280;3250;42.694;23.278;2023-05-03T08:40:04;95220.97;;;14.91;54.28
6435;BME280;3250;42.694;23.278;2023-05-03T08:42:31;95214.69;;;15.38;54.93
6435;BME280;3250;42.694;23.278;2023-05-03T08:44:58;95212.47;;;15.70;52.74
6435;BME280;3250;42.694;23.278;2023-05-03T08:47:23;95217.13;;;16.03;50.57
6435;BME280;3250;42.694;23.278;2023-05-03T08:49:50;95214.53;;;15.80;50.68
6435;BME280;3250;42.694;23.278;2023-05-03T08:52:17;95222.44;;;15.92;52.29
6435;BME280;3250;42.694;23.278;2023-05-03T08:54:44;95220.06;;;15.90;50.61
6435;BME280;3250;42.694;23.278;2023-05-03T08:57:13;95203.63;;;15.93;51.39
6435;BME280;3250;42.694;23.278;2023-05-03T08:59:48;95220.78;;;16.14;50.34
6435;BME280;3250;42.694;23.278;2023-05-03T09:02:15;95202.09;;;16.09;53.01
6435;BME280;3250;42.694;23.278;2023-05-03T09:04:41;95225.25;;;16.25;50.70
6435;BME280;3250;42.694;23.278;2023-05-03T09:07:10;95225.72;;;16.22;51.01
6435;BME280;3250;42.694;23.278;2023-05-03T09:09:35;95233.28;;;16.02;51.02
6435;BME280;3250;42.694;23.278;2023-05-03T09:12:01;95224.03;;;16.04;51.31
6435;BME280;3250;42.694;23.278;2023-05-03T09:14:27;95207.38;;;15.80;51.36
6435;BME280;3250;42.694;23.278;2023-05-03T09:16:52;95217.84;;;15.99;53.34
6435;BME280;3250;42.694;23.278;2023-05-03T09:19:17;95190.84;;;16.18;51.27
6435;BME280;3250;42.694;23.278;2023-05-03T09:21:44;95183.84;;;16.41;50.29
6435;BME280;3250;42.694;23.278;2023-05-03T09:24:18;95204.78;;;16.54;50.77
6435;BME280;3250;42.694;23.278;2023-05-03T09:26:45;95199.88;;;16.91;51.62
6435;BME280;3250;42.694;23.278;2023-05-03T09:29:29;95205.53;;;16.94;49.00
6435;BME280;3250;42.694;23.278;2023-05-03T09:32:00;95198.72;;;16.87;50.57
6435;BME280;3250;42.694;23.278;2023-05-03T09:34:26;95188.03;;;16.82;49.58
6435;BME280;3250;42.694;23.278;2023-05-03T09:36:51;95191.22;;;16.39;49.64
6435;BME280;3250;42.694;23.278;2023-05-03T09:39:17;95147.97;;;16.27;50.38
6435;BME280;3250;42.694;23.278;2023-05-03T09:41:43;95185.88;;;16.50;51.30
6435;BME280;3250;42.694;23.278;2023-05-03T09:44:09;95181.91;;;16.53;50.94
6435;BME280;3250;42.694;23.278;2023-05-03T09:46:35;95154.38;;;16.42;51.32
6435;BME280;3250;42.694;23.278;2023-05-03T09:49:02;95178.09;;;16.32;50.91
6435;BME280;3250;42.694;23.278;2023-05-03T09:51:28;95169.41;;;16.37;51.59
6435;BME280;3250;42.694;23.278;2023-05-03T09:53:56;95180.19;;;16.30;51.25
6435;BME280;3250;42.694;23.278;2023-05-03T09:56:24;95153.69;;;16.35;52.04
6435;BME280;3250;42.694;23.278;2023-05-03T09:58:51;95166.50;;;16.83;51.48
6435;BME280;3250;42.694;23.278;2023-05-03T10:01:18;95158.09;;;17.25;52.38
6435;BME280;3250;42.694;23.278;2023-05-03T10:03:46;95164.44;;;17.41;54.22
6435;BME280;3250;42.694;23.278;2023-05-03T10:06:23;95162.03;;;17.61;50.09
6435;BME280;3250;42.694;23.278;2023-05-03T10:09:05;95146.38;;;17.64;49.97
6435;BME280;3250;42.694;23.278;2023-05-03T10:11:43;95124.44;;;17.35;50.28
6435;BME280;3250;42.694;23.278;2023-05-03T10:14:11;95148.69;;;17.39;50.29
6435;BME280;3250;42.694;23.278;2023-05-03T10:16:38;95157.66;;;17.33;50.39
6435;BME280;3250;42.694;23.278;2023-05-03T10:19:08;95154.44;;;17.31;51.45
6435;BME280;3250;42.694;23.278;2023-05-03T10:21:54;95156.06;;;17.32;50.79
6435;BME280;3250;42.694;23.278;2023-05-03T10:24:23;95146.78;;;17.34;51.54
6435;BME280;3250;42.694;23.278;2023-05-03T10:26:50;95120.16;;;17.34;51.22
6435;BME280;3250;42.694;23.278;2023-05-03T10:32:03;95113.56;;;17.37;51.48
6435;BME280;3250;42.694;23.278;2023-05-03T10:34:31;95123.78;;;17.45;50.47
6435;BME280;3250;42.694;23.278;2023-05-03T10:37:07;95107.38;;;17.53;51.34
6435;BME280;3250;42.694;23.278;2023-05-03T10:39:34;95111.78;;;17.64;49.81
6435;BME280;3250;42.694;23.278;2023-05-03T10:42:07;95091.47;;;17.37;51.25
6435;BME280;3250;42.694;23.278;2023-05-03T10:44:37;95099.94;;;17.33;50.71
6435;BME280;3250;42.694;23.278;2023-05-03T10:47:12;95111.56;;;17.49;51.65
6435;BME280;3250;42.694;23.278;2023-05-03T10:49:39;95102.47;;;17.45;51.82
6435;BME280;3250;42.694;23.278;2023-05-03T10:55:20;95100.31;;;17.42;51.88
6435;BME280;3250;42.694;23.278;2023-05-03T10:57:47;95112.63;;;17.48;51.08
6435;BME280;3250;42.694;23.278;2023-05-03T11:00:25;95106.53;;;17.31;52.25
6435;BME280;3250;42.694;23.278;2023-05-03T11:05:37;95120.88;;;17.30;51.65
6435;BME280;3250;42.694;23.278;2023-05-03T11:08:22;95119.59;;;17.32;52.57
6435;BME280;3250;42.694;23.278;2023-05-03T11:10:57;95109.72;;;17.28;51.39
6435;BME280;3250;42.694;23.278;2023-05-03T11:13:23;95097.31;;;17.17;51.96
6435;BME280;3250;42.694;23.278;2023-05-03T11:15:49;95098.81;;;17.29;52.00
6435;BME280;3250;42.694;23.278;2023-05-03T11:18:14;95096.59;;;17.43;51.96
6435;BME280;3250;42.694;23.278;2023-05-03T11:20:40;95097.53;;;17.54;51.62
6435;BME280;3250;42.694;23.278;2023-05-03T11:23:05;95094.50;;;17.67;51.49
6435;BME280;3250;42.694;23.278;2023-05-03T11:25:34;95096.88;;;17.63;51.21
6435;BME280;3250;42.694;23.278;2023-05-03T11:28:00;95087.03;;;17.64;53.08
6435;BME280;3250;42.694;23.278;2023-05-03T11:30:27;95080.72;;;17.70;52.32
6435;BME280;3250;42.694;23.278;2023-05-03T11:32:53;95069.03;;;17.76;50.84
6435;BME280;3250;42.694;23.278;2023-05-03T11:35:19;95077.84;;;17.77;50.17
6435;BME280;3250;42.694;23.278;2023-05-03T11:37:48;95081.75;;;17.69;51.03
6435;BME280;3250;42.694;23.278;2023-05-03T11:40:15;95078.25;;;17.63;51.16
6435;BME280;3250;42.694;23.278;2023-05-03T11:42:57;95086.53;;;17.67;52.08
6435;BME280;3250;42.694;23.278;2023-05-03T11:45:31;95077.00;;;17.71;51.76
6435;BME280;3250;42.694;23.278;2023-05-03T11:48:02;95068.75;;;17.73;51.83
6435;BME280;3250;42.694;23.278;2023-05-03T11:50:51;95043.44;;;17.70;51.83
6435;BME280;3250;42.694;23.278;2023-05-03T11:53:20;95054.03;;;17.92;52.74
6435;BME280;3250;42.694;23.278;2023-05-03T11:55:49;95053.19;;;17.86;51.42
6435;BME280;3250;42.694;23.278;2023-05-03T11:58:16;95042.22;;;17.83;51.89
6435;BME280;3250;42.694;23.278;2023-05-03T12:00:45;95052.34;;;17.81;51.71
6435;BME280;3250;42.694;23.278;2023-05-03T12:03:28;95054.31;;;17.68;52.28
6435;BME280;3250;42.694;23.278;2023-05-03T12:05:54;95044.56;;;17.57;52.72
6435;BME280;3250;42.694;23.278;2023-05-03T12:08:20;95045.34;;;17.53;53.34
6435;BME280;3250;42.694;23.278;2023-05-03T12:10:47;95038.03;;;17.65;52.49
6435;BME280;3250;42.694;23.278;2023-05-03T12:13:13;95062.03;;;17.48;52.54
6435;BME280;3250;42.694;23.278;2023-05-03T12:15:39;95063.91;;;17.26;53.71
6435;BME280;3250;42.694;23.278;2023-05-03T12:18:09;95053.50;;;17.03;54.44
6435;BME280;3250;42.694;23.278;2023-05-03T12:20:35;95031.72;;;17.06;54.60
6435;BME280;3250;42.694;23.278;2023-05-03T12:23:05;95045.72;;;17.18;53.87
6435;BME280;3250;42.694;23.278;2023-05-03T12:25:32;95038.59;;;17.23;53.93
6435;BME280;3250;42.694;23.278;2023-05-03T12:28:00;95040.59;;;17.11;53.13
6435;BME280;3250;42.694;23.278;2023-05-03T12:30:27;95029.00;;;17.01;53.89
6435;BME280;3250;42.694;23.278;2023-05-03T12:32:52;95039.69;;;16.84;54.25
6435;BME280;3250;42.694;23.278;2023-05-03T12:35:18;95000.69;;;16.56;54.80
6435;BME280;3250;42.694;23.278;2023-05-03T12:37:47;95026.81;;;16.59;55.95
6435;BME280;3250;42.694;23.278;2023-05-03T12:40:13;95048.31;;;16.41;56.05
6435;BME280;3250;42.694;23.278;2023-05-03T12:42:41;95021.34;;;16.15;56.56
6435;BME280;3250;42.694;23.278;2023-05-03T12:45:07;95034.84;;;16.14;56.96
6435;BME280;3250;42.694;23.278;2023-05-03T12:47:33;95031.44;;;15.85;58.18
6435;BME280;3250;42.694;23.278;2023-05-03T12:49:58;95007.22;;;15.53;58.64
6435;BME280;3250;42.694;23.278;2023-05-03T12:52:24;95010.78;;;15.59;59.44
6435;BME280;3250;42.694;23.278;2023-05-03T12:54:51;95033.34;;;15.73;59.61
6435;BME280;3250;42.694;23.278;2023-05-03T12:57:16;95025.94;;;15.75;59.62
6435;BME280;3250;42.694;23.278;2023-05-03T12:59:42;95012.78;;;15.80;59.46
6435;BME280;3250;42.694;23.278;2023-05-03T13:02:11;95020.81;;;15.85;59.32
6435;BME280;3250;42.694;23.278;2023-05-03T13:04:37;95013.47;;;15.75;60.00
6435;BME280;3250;42.694;23.278;2023-05-03T13:07:03;95019.81;;;15.74;59.88
6435;BME280;3250;42.694;23.278;2023-05-03T13:09:30;95010.34;;;15.78;60.95
6435;BME280;3250;42.694;23.278;2023-05-03T13:11:56;95021.84;;;15.84;61.32
6435;BME280;3250;42.694;23.278;2023-05-03T13:14:21;95027.28;;;15.61;62.58
6435;BME280;3250;42.694;23.278;2023-05-03T13:16:47;95013.72;;;15.45;63.37
6435;BME280;3250;42.694;23.278;2023-05-03T13:19:16;95016.81;;;15.42;64.42
6435;BME280;3250;42.694;23.278;2023-05-03T13:21:41;95018.72;;;15.30;64.63
6435;BME280;3250;42.694;23.278;2023-05-03T13:24:07;95036.88;;;15.22;64.64
6435;BME280;3250;42.694;23.278;2023-05-03T13:26:33;95035.94;;;15.16;65.28